Decoded Metar for KMQI (MANTEO/DARE CO in NC, USA) (IATA:MQI) | Meteo·Mobile Aviation Weather
aviador You're here:

KMQI Decoded Metar

MANTEO/DARE CO in NC, USA
Report Time2019-06-25 20:20:00
UTC Time2019-06-25 20:44:03
Flight Rules vfr VFR
Wind030° at 12 Gusting to 16 kt
W.Decomp.*RWY 05: 11.8 kt HW 2.3 kt LCW
RWY 35: 7.9 kt HW 9.1 kt RCW
Visibility9999 m
Phenomena:N/A
Clouds:N/A
Expected CloudBase > 2,800 ft AGL from Temp-Dew spread
CeilingNone
Temp29°C (ISA +14)
Dew Point22°C (66% RH)
Heat Index32.0°C
QNH1013 hPa
Density Alt1,972 ft
Elevation13 ft
Report Wrong Elevation
Raw Report
KMQI 252020Z AUTO 03012G16KT 10SM CLR 29/22 A2990 RMK AO2
T02910224=

Extra information for KMQI:More info

Metar Taf Metar & Taf Last 4 Metars F.Rules Stats Wind Profile Meteogram Temp Stats Airport Information Weather charts Add Link Nearby VenuesMetar ALERT Operation Metar Decoded Social comments

AIRNAV info for KMQI